createdAt,value
2018-07-12T08:34:45.367Z,70.70
2018-07-12T08:37:26.817Z,72.10
2018-07-12T08:40:08.597Z,70.80
2018-07-12T08:42:50.054Z,70.80
2018-07-12T08:45:34.610Z,70.70
2018-07-12T08:48:16.382Z,70.30
2018-07-12T08:50:57.879Z,70.00
2018-07-12T08:53:39.720Z,69.60
2018-07-12T08:56:21.439Z,74.60
2018-07-12T08:59:03.292Z,72.90
2018-07-12T09:01:44.975Z,71.30
2018-07-12T09:04:26.808Z,68.60
2018-07-12T09:07:08.463Z,68.60
2018-07-12T09:09:50.131Z,68.80
2018-07-12T09:12:32.102Z,68.40
2018-07-12T09:15:14.325Z,73.50
2018-07-12T09:17:55.526Z,72.70
2018-07-12T09:20:37.368Z,73.60
2018-07-12T09:23:18.754Z,74.70
2018-07-12T09:25:59.816Z,74.00
2018-07-12T09:28:41.580Z,73.90
2018-07-12T09:31:23.224Z,74.40
2018-07-12T09:34:05.588Z,74.10
2018-07-12T09:36:47.203Z,73.20
2018-07-12T09:39:28.537Z,73.20
2018-07-12T09:42:10.595Z,70.60
2018-07-12T09:44:52.739Z,70.60
2018-07-12T09:47:33.905Z,71.70
2018-07-12T09:50:15.548Z,72.70
2018-07-12T09:52:57.220Z,72.10
2018-07-12T09:55:39.419Z,70.60
2018-07-12T09:58:21.124Z,70.80
2018-07-12T10:01:07.494Z,71.50
2018-07-12T10:03:53.691Z,72.00
2018-07-12T10:06:39.025Z,70.90
2018-07-12T10:09:25.860Z,69.20
2018-07-12T10:13:13.846Z,69.40
2018-07-12T10:15:59.558Z,71.10
2018-07-12T10:21:22.362Z,69.90
2018-07-12T10:24:04.300Z,69.80
2018-07-12T10:26:46.141Z,70.20
2018-07-12T10:29:27.733Z,70.60
2018-07-12T10:32:09.406Z,71.30
2018-07-12T10:34:50.991Z,72.80
2018-07-12T10:37:32.988Z,73.40
2018-07-12T10:40:15.116Z,73.60
2018-07-12T10:42:57.023Z,74.70
2018-07-12T10:45:38.604Z,76.20
2018-07-12T10:48:20.507Z,75.40
2018-07-12T10:51:02.139Z,76.90
2018-07-12T10:53:43.793Z,76.70
2018-07-12T10:56:25.118Z,75.30
2018-07-12T10:59:06.825Z,75.60
2018-07-12T11:01:48.285Z,75.30
2018-07-12T11:04:30.363Z,74.80
2018-07-12T11:07:11.130Z,74.30
2018-07-12T11:09:51.906Z,74.80
2018-07-12T11:12:33.607Z,74.40
2018-07-12T11:15:15.577Z,75.20
2018-07-12T11:17:57.101Z,74.30
2018-07-12T11:20:38.993Z,74.20
2018-07-12T11:23:20.415Z,74.30
2018-07-12T11:26:01.778Z,74.20
2018-07-12T11:28:43.444Z,76.70
2018-07-12T11:31:24.786Z,75.80
2018-07-12T11:34:06.419Z,75.60
2018-07-12T11:36:47.637Z,75.00
2018-07-12T11:39:29.149Z,74.50
2018-07-12T11:42:10.993Z,75.10
2018-07-12T11:44:52.735Z,75.00
2018-07-12T11:47:34.257Z,73.70
2018-07-12T11:50:15.954Z,74.30
2018-07-12T11:52:56.868Z,72.70
2018-07-12T11:55:38.492Z,72.00
2018-07-12T11:58:20.326Z,71.90
2018-07-12T12:06:25.278Z,71.00
2018-07-12T12:09:07.052Z,71.60
2018-07-12T12:11:48.624Z,70.90
2018-07-12T12:14:30.411Z,70.40
2018-07-12T12:17:12.266Z,70.30
2018-07-12T12:19:53.747Z,69.30
2018-07-12T12:22:35.571Z,70.00
2018-07-12T12:25:17.234Z,71.30
2018-07-12T12:27:58.898Z,71.80
2018-07-12T12:30:40.545Z,72.10
2018-07-12T12:33:22.234Z,71.90
2018-07-12T12:36:04.177Z,71.80
2018-07-12T12:38:45.917Z,70.30
2018-07-12T12:41:27.657Z,70.30
2018-07-12T12:44:08.501Z,72.30
2018-07-12T12:46:49.399Z,73.00
2018-07-12T12:49:31.055Z,71.80
2018-07-12T12:52:12.023Z,72.60
2018-07-12T12:54:53.070Z,72.90
2018-07-12T12:57:34.812Z,72.20
2018-07-12T13:00:15.549Z,72.30
2018-07-12T13:02:56.288Z,72.90
2018-07-12T13:05:38.028Z,72.60
2018-07-12T13:13:42.132Z,73.20
2018-07-12T13:16:23.746Z,72.30
2018-07-12T13:19:04.450Z,70.90
2018-07-12T13:21:45.446Z,71.30
2018-07-12T13:24:27.166Z,71.70
2018-07-12T13:27:08.843Z,71.10
2018-07-12T13:32:32.238Z,71.00
2018-07-12T13:35:13.765Z,71.60
2018-07-12T13:37:54.746Z,70.70
2018-07-12T13:40:36.340Z,70.30
2018-07-12T13:43:18.075Z,70.60
2018-07-12T13:45:59.656Z,70.80
2018-07-12T13:48:41.427Z,70.60
2018-07-12T13:51:23.088Z,71.40
2018-07-12T13:54:05.016Z,72.10
2018-07-12T13:56:47.043Z,72.60
2018-07-12T13:59:28.491Z,71.40
2018-07-12T14:02:10.294Z,71.20
2018-07-12T14:04:51.956Z,71.90
2018-07-12T14:07:33.695Z,71.70
2018-07-12T14:10:15.557Z,70.30
2018-07-12T14:12:56.475Z,71.80
2018-07-12T14:15:38.281Z,71.20
2018-07-12T14:18:20.034Z,69.80
2018-07-12T14:21:01.746Z,69.60
2018-07-12T14:26:25.270Z,68.70
2018-07-12T14:29:06.364Z,68.00
2018-07-12T14:34:29.077Z,70.60
2018-07-12T14:37:11.055Z,68.80
2018-07-12T14:39:52.411Z,70.30
2018-07-12T14:42:33.932Z,71.30
2018-07-12T14:45:15.551Z,69.60
2018-07-12T14:47:57.012Z,69.90
2018-07-12T14:50:39.679Z,71.00
2018-07-12T14:53:21.479Z,69.10
2018-07-12T14:56:03.004Z,70.80
2018-07-12T15:01:25.748Z,70.40
2018-07-12T15:04:07.394Z,69.40
2018-07-12T15:06:48.336Z,72.00
2018-07-12T15:09:29.989Z,70.90
2018-07-12T15:12:11.556Z,70.70
2018-07-12T15:14:53.256Z,71.00
2018-07-12T15:17:35.056Z,70.70
2018-07-12T15:20:16.621Z,70.50
2018-07-12T15:22:58.159Z,70.80
2018-07-12T15:25:39.999Z,71.40
2018-07-12T15:28:21.837Z,71.10
2018-07-12T15:31:03.615Z,72.90
2018-07-12T15:33:45.167Z,72.10
2018-07-12T15:36:25.879Z,71.80
2018-07-12T15:39:08.242Z,72.00
2018-07-12T15:41:49.542Z,74.30
2018-07-12T15:44:31.202Z,73.70
2018-07-12T15:47:12.756Z,73.80
2018-07-12T15:49:53.468Z,75.00
2018-07-12T15:52:34.579Z,73.70
2018-07-12T15:55:16.198Z,73.70
2018-07-12T15:57:57.871Z,75.90
2018-07-12T16:00:39.729Z,76.20
2018-07-12T16:03:21.461Z,76.70
2018-07-12T16:06:03.332Z,75.90
2018-07-12T16:08:44.939Z,76.40
2018-07-12T16:11:26.745Z,78.50
2018-07-12T16:14:08.544Z,78.80
2018-07-12T16:16:49.223Z,78.50
2018-07-12T16:19:29.945Z,79.70
2018-07-12T16:22:11.015Z,80.20
2018-07-12T16:24:52.755Z,79.80
2018-07-12T16:27:34.655Z,80.70
2018-07-12T16:30:16.259Z,80.80
2018-07-12T16:32:58.757Z,82.20
2018-07-12T16:35:39.634Z,82.90
2018-07-12T16:38:20.370Z,82.10
2018-07-12T16:41:01.971Z,80.70
2018-07-12T16:43:42.883Z,81.00
2018-07-12T17:17:36.372Z,81.70
2018-07-12T17:20:18.329Z,82.80
2018-07-12T17:22:59.974Z,81.50
2018-07-12T17:31:55.194Z,82.10
2018-07-12T17:34:36.033Z,82.00
2018-07-12T17:37:17.693Z,81.20
2018-07-12T17:39:59.485Z,81.00
2018-07-12T17:42:41.208Z,80.50
2018-07-12T17:45:22.961Z,81.00
2018-07-12T17:48:04.590Z,80.20
2018-07-12T17:50:46.515Z,79.00
2018-07-12T17:53:28.070Z,78.80
2018-07-12T17:56:09.904Z,78.80
2018-07-12T17:58:51.642Z,78.90
2018-07-12T18:01:32.629Z,79.50
2018-07-12T18:04:14.336Z,79.10
2018-07-12T18:06:55.954Z,79.10
2018-07-12T18:09:37.706Z,79.20
2018-07-12T18:12:19.399Z,78.80
2018-07-12T18:15:01.248Z,78.40
2018-07-12T18:17:42.944Z,78.80
2018-07-12T18:20:24.573Z,76.60
2018-07-12T18:23:07.564Z,76.80
2018-07-12T18:25:48.715Z,76.90
2018-07-12T18:28:29.497Z,77.60
2018-07-12T18:31:11.220Z,77.80
2018-07-12T18:33:53.915Z,77.50
2018-07-12T18:36:35.529Z,79.10
2018-07-12T18:39:16.416Z,77.80
2018-07-12T18:41:58.097Z,75.90
2018-07-12T18:44:39.947Z,76.10
2018-07-12T18:52:44.151Z,75.90
2018-07-12T18:55:25.859Z,76.10
2018-07-12T18:58:07.592Z,75.80
2018-07-12T19:00:49.377Z,75.70
2018-07-12T19:03:31.011Z,75.70
2018-07-12T19:06:12.913Z,74.90
2018-07-12T19:08:53.789Z,75.30
2018-07-12T19:11:35.649Z,74.30
2018-07-12T19:14:16.434Z,74.80
2018-07-12T19:16:58.085Z,74.70
2018-07-12T19:19:38.964Z,74.90
2018-07-12T19:22:20.732Z,75.70
2018-07-12T19:25:02.566Z,76.20
2018-07-12T19:27:44.176Z,76.20
2018-07-12T19:30:25.901Z,77.00
2018-07-12T19:33:08.084Z,77.70
2018-07-12T19:35:49.104Z,78.30
2018-07-12T19:38:29.805Z,78.90
2018-07-12T19:41:10.686Z,79.70
2018-07-12T19:43:52.684Z,79.40
2018-07-12T19:49:15.682Z,79.10
2018-07-12T19:51:57.716Z,79.40
2018-07-12T19:54:39.249Z,79.60
2018-07-12T19:57:20.926Z,79.50
2018-07-12T20:00:02.601Z,79.30
2018-07-12T20:02:44.050Z,79.70
2018-07-12T20:05:25.763Z,80.00
2018-07-12T20:08:07.313Z,80.50
2018-07-12T20:10:48.081Z,80.60
2018-07-12T20:13:28.937Z,81.20
2018-07-12T20:16:10.616Z,81.30
2018-07-12T20:18:51.519Z,81.40
2018-07-12T20:21:33.345Z,81.30
2018-07-12T20:24:14.400Z,80.60
2018-07-12T20:26:57.004Z,81.10
2018-07-12T20:29:39.963Z,82.20
2018-07-12T20:32:21.551Z,82.70
2018-07-12T20:35:02.901Z,82.70
2018-07-12T20:37:43.827Z,83.80
2018-07-12T20:40:25.476Z,83.00
2018-07-12T20:43:06.322Z,84.20
2018-07-12T20:45:47.585Z,82.90
2018-07-12T20:48:28.791Z,83.00
2018-07-12T20:51:10.373Z,83.30
2018-07-12T20:53:52.255Z,83.30
2018-07-12T20:56:34.134Z,82.90
2018-07-12T20:59:15.674Z,83.20
2018-07-12T21:01:57.483Z,83.40
2018-07-12T21:04:39.335Z,83.40
2018-07-12T21:07:20.416Z,84.00
2018-07-12T21:10:01.866Z,84.00
2018-07-12T21:12:44.238Z,84.70
2018-07-12T21:15:26.404Z,83.00
2018-07-12T21:18:08.175Z,83.10
2018-07-12T21:20:49.869Z,83.10
2018-07-12T21:23:30.796Z,83.00
2018-07-12T21:26:12.553Z,83.40
2018-07-12T21:28:54.191Z,83.40
2018-07-12T21:31:35.088Z,83.60
2018-07-12T21:34:16.019Z,82.60
2018-07-12T21:36:57.788Z,82.70
2018-07-12T21:39:39.696Z,82.50
2018-07-12T21:42:21.226Z,82.80
2018-07-12T21:45:02.061Z,83.20
2018-07-12T21:47:43.084Z,83.50
2018-07-12T21:50:24.018Z,83.20
2018-07-12T21:53:07.693Z,82.90
2018-07-12T21:55:49.350Z,83.30
2018-07-12T21:58:31.017Z,83.10
2018-07-12T22:01:11.765Z,82.90
2018-07-12T22:03:53.511Z,82.00
2018-07-12T22:06:35.573Z,81.90
2018-07-12T22:09:16.950Z,81.00
2018-07-12T22:11:58.639Z,81.00
2018-07-12T22:14:40.398Z,80.10
2018-07-12T22:17:22.963Z,79.50
2018-07-12T22:20:03.856Z,80.00
2018-07-12T22:22:45.609Z,80.00
2018-07-12T22:25:27.232Z,79.30
2018-07-12T22:28:08.187Z,78.70
2018-07-12T22:30:49.793Z,79.50
2018-07-12T22:33:31.383Z,79.30
2018-07-12T22:36:12.581Z,78.50
2018-07-12T22:38:54.142Z,78.70
2018-07-12T22:41:34.895Z,78.00
2018-07-12T22:44:16.536Z,76.90
2018-07-12T22:46:57.278Z,78.20
2018-07-12T22:49:39.051Z,78.20
2018-07-12T22:52:22.894Z,77.80
2018-07-12T22:55:04.573Z,77.70
2018-07-12T22:57:48.231Z,76.60
2018-07-12T23:00:29.120Z,74.30
2018-07-12T23:03:10.907Z,74.90
2018-07-12T23:05:52.897Z,73.30
2018-07-12T23:08:33.772Z,73.10
2018-07-12T23:11:15.431Z,72.00
2018-07-12T23:13:57.149Z,71.90
2018-07-12T23:16:38.953Z,71.40
2018-07-12T23:19:19.944Z,71.20
2018-07-12T23:22:01.649Z,72.10
2018-07-12T23:24:43.380Z,72.70
2018-07-12T23:27:24.308Z,71.50
2018-07-12T23:30:05.116Z,70.70
2018-07-12T23:32:46.776Z,71.40
2018-07-12T23:35:28.511Z,70.00
2018-07-12T23:38:09.344Z,70.00
2018-07-12T23:40:50.312Z,70.30
2018-07-12T23:43:32.162Z,67.50
2018-07-12T23:46:14.999Z,69.20
2018-07-12T23:48:55.844Z,68.20
2018-07-12T23:51:37.498Z,68.70
2018-07-12T23:54:18.372Z,67.50
2018-07-12T23:56:59.935Z,66.80
2018-07-12T23:59:41.786Z,66.50
